This is the latest recevied weather packets stored in our database for station/object KD7AWQ. If no packets are shown the sender has not sent any weather packets the latest 10 day(s).
| Time | Temp. | Humidity | Pressure | Rain* | Wind** | Luminosity | Snow |
|---|---|---|---|---|---|---|---|
| 1777910192 | 20.56° C | 24% | 1183.7 hPa | 0 mm | - | 635 W/m² | - |
| 1777909284 | 21.11° C | 24% | 1184.1 hPa | 0 mm | - | 645 W/m² | - |
| 1777908680 | 20° C | 26% | 1183.9 hPa | 0 mm | - | 476 W/m² | - |
| 1777907161 | 20° C | 27% | 1184.1 hPa | 0 mm | - | 386 W/m² | - |
| 1777906858 | 19.44° C | 28% | 1184.1 hPa | 0 mm | - | 395 W/m² | - |
| 1777906250 | 18.89° C | 29% | 1184.3 hPa | 0 mm | - | 303 W/m² | - |
| 1777905644 | 18.89° C | 29% | 1184 hPa | 0 mm | - | 270 W/m² | - |
| 1777905341 | 18.33° C | 29% | 1183.9 hPa | 0 mm | - | 276 W/m² | - |
| 1777903523 | 17.22° C | 33% | 1184.3 hPa | 0 mm | - | 130 W/m² | - |
| 1777901705 | 17.78° C | 32% | 1183.7 hPa | 0 mm | - | 83 W/m² | - |
| 1777901099 | 17.22° C | 32% | 1183.6 hPa | 0 mm | - | 81 W/m² | - |
| 1777900797 | 16.67° C | 32% | 1183.6 hPa | 0 mm | - | 75 W/m² | - |
| 1777900494 | 16.67° C | 32% | 1183.3 hPa | 0 mm | - | 47 W/m² | - |
| 1777900191 | 16.67° C | 33% | 1183.3 hPa | 0 mm | - | 34 W/m² | - |
| 1777898373 | 16.11° C | 33% | 1182.9 hPa | 0 mm | - | 7 W/m² | - |
| 1777898071 | 16.11° C | 33% | 1182.7 hPa | 0 mm | - | 4 W/m² | - |
| 1777897767 | 16.67° C | 33% | 1182.6 hPa | 0 mm | - | 2 W/m² | - |
| 1777897463 | 16.67° C | 32% | 1182.4 hPa | 0 mm | - | 1 W/m² | - |
| 1777897159 | 16.67° C | 32% | 1182.4 hPa | 0 mm | - | 0 W/m² | - |
| 1777896855 | 16.67° C | 32% | 1182.7 hPa | 0 mm | - | 0 W/m² | - |
| 1777896553 | 16.67° C | 32% | 1182.7 hPa | 0 mm | - | 0 W/m² | - |
| 1777896250 | 16.67° C | 32% | 1182.8 hPa | 0 mm | - | 0 W/m² | - |
| 1777895948 | 16.67° C | 32% | 1182.8 hPa | 0 mm | - | 0 W/m² | - |
| 1777895645 | 16.67° C | 32% | 1182.8 hPa | 0 mm | - | 0 W/m² | - |
| 1777895343 | 16.67° C | 32% | 1182.9 hPa | 0 mm | - | 0 W/m² | - |
* Rain latest hour (hover to see other rain measurements)
** Current wind speed in m/s (hover to see current wind gust speed)